sensor_id;sensor_type;location;lat;lon;timestamp;P1;durP1;ratioP1;P2;durP2;ratioP2
10315;SDS011;5203;48.976;8.306;2023-02-28T00:00:31;3.40;;;3.10;;
10315;SDS011;5203;48.976;8.306;2023-02-28T00:02:57;3.97;;;3.10;;
10315;SDS011;5203;48.976;8.306;2023-02-28T00:05:23;3.57;;;2.87;;
10315;SDS011;5203;48.976;8.306;2023-02-28T00:07:50;5.03;;;3.20;;
10315;SDS011;5203;48.976;8.306;2023-02-28T00:10:18;4.03;;;3.40;;
10315;SDS011;5203;48.976;8.306;2023-02-28T00:12:46;4.70;;;3.50;;
10315;SDS011;5203;48.976;8.306;2023-02-28T00:15:13;4.50;;;3.30;;
10315;SDS011;5203;48.976;8.306;2023-02-28T00:17:39;3.57;;;3.27;;
10315;SDS011;5203;48.976;8.306;2023-02-28T00:20:05;3.37;;;3.10;;
10315;SDS011;5203;48.976;8.306;2023-02-28T00:22:40;3.60;;;3.30;;
10315;SDS011;5203;48.976;8.306;2023-02-28T00:25:07;3.47;;;3.17;;
10315;SDS011;5203;48.976;8.306;2023-02-28T00:27:35;3.43;;;3.10;;
10315;SDS011;5203;48.976;8.306;2023-02-28T00:30:01;3.17;;;2.97;;
10315;SDS011;5203;48.976;8.306;2023-02-28T00:32:28;3.47;;;3.17;;
10315;SDS011;5203;48.976;8.306;2023-02-28T00:34:54;3.67;;;3.37;;
10315;SDS011;5203;48.976;8.306;2023-02-28T00:37:20;4.07;;;3.10;;
10315;SDS011;5203;48.976;8.306;2023-02-28T00:39:46;3.57;;;3.07;;
10315;SDS011;5203;48.976;8.306;2023-02-28T00:42:11;4.70;;;3.07;;
10315;SDS011;5203;48.976;8.306;2023-02-28T00:44:37;3.43;;;3.13;;
10315;SDS011;5203;48.976;8.306;2023-02-28T00:47:03;3.30;;;3.00;;
10315;SDS011;5203;48.976;8.306;2023-02-28T00:49:29;5.23;;;3.33;;
10315;SDS011;5203;48.976;8.306;2023-02-28T00:51:54;3.30;;;3.00;;
10315;SDS011;5203;48.976;8.306;2023-02-28T00:54:20;3.60;;;3.30;;
10315;SDS011;5203;48.976;8.306;2023-02-28T00:56:47;3.63;;;3.10;;
10315;SDS011;5203;48.976;8.306;2023-02-28T00:59:13;4.23;;;3.83;;
10315;SDS011;5203;48.976;8.306;2023-02-28T01:01:41;3.47;;;3.10;;
10315;SDS011;5203;48.976;8.306;2023-02-28T01:04:07;4.60;;;3.30;;
10315;SDS011;5203;48.976;8.306;2023-02-28T01:06:33;3.73;;;3.33;;
10315;SDS011;5203;48.976;8.306;2023-02-28T01:08:59;3.53;;;3.20;;
10315;SDS011;5203;48.976;8.306;2023-02-28T01:11:25;3.30;;;3.00;;
10315;SDS011;5203;48.976;8.306;2023-02-28T01:13:51;3.40;;;3.10;;
10315;SDS011;5203;48.976;8.306;2023-02-28T01:16:16;3.80;;;3.47;;
10315;SDS011;5203;48.976;8.306;2023-02-28T01:18:42;5.37;;;3.43;;
10315;SDS011;5203;48.976;8.306;2023-02-28T01:21:10;3.30;;;2.90;;
10315;SDS011;5203;48.976;8.306;2023-02-28T01:23:38;3.90;;;3.53;;
10315;SDS011;5203;48.976;8.306;2023-02-28T01:26:08;3.43;;;3.13;;
10315;SDS011;5203;48.976;8.306;2023-02-28T01:28:36;4.10;;;3.40;;
10315;SDS011;5203;48.976;8.306;2023-02-28T01:31:01;4.47;;;3.07;;
10315;SDS011;5203;48.976;8.306;2023-02-28T01:33:27;4.67;;;3.37;;
10315;SDS011;5203;48.976;8.306;2023-02-28T01:36:03;3.10;;;2.77;;
10315;SDS011;5203;48.976;8.306;2023-02-28T01:38:31;3.17;;;2.87;;
10315;SDS011;5203;48.976;8.306;2023-02-28T01:40:57;3.67;;;3.37;;
10315;SDS011;5203;48.976;8.306;2023-02-28T01:43:24;3.47;;;3.17;;
10315;SDS011;5203;48.976;8.306;2023-02-28T01:46:11;5.63;;;3.30;;
10315;SDS011;5203;48.976;8.306;2023-02-28T01:48:38;3.87;;;3.30;;
10315;SDS011;5203;48.976;8.306;2023-02-28T01:51:13;3.97;;;3.53;;
10315;SDS011;5203;48.976;8.306;2023-02-28T01:53:52;4.40;;;3.17;;
10315;SDS011;5203;48.976;8.306;2023-02-28T01:56:24;4.80;;;3.77;;
10315;SDS011;5203;48.976;8.306;2023-02-28T01:58:56;3.80;;;3.47;;
10315;SDS011;5203;48.976;8.306;2023-02-28T02:01:22;3.97;;;3.37;;
10315;SDS011;5203;48.976;8.306;2023-02-28T02:03:51;3.73;;;3.43;;
10315;SDS011;5203;48.976;8.306;2023-02-28T02:06:27;5.77;;;3.70;;
10315;SDS011;5203;48.976;8.306;2023-02-28T02:09:07;4.33;;;3.50;;
10315;SDS011;5203;48.976;8.306;2023-02-28T02:11:33;4.87;;;3.57;;
10315;SDS011;5203;48.976;8.306;2023-02-28T02:24:52;3.53;;;3.23;;
10315;SDS011;5203;48.976;8.306;2023-02-28T02:27:27;4.20;;;3.63;;
10315;SDS011;5203;48.976;8.306;2023-02-28T02:33:13;4.63;;;3.60;;
10315;SDS011;5203;48.976;8.306;2023-02-28T02:35:56;4.40;;;3.50;;
10315;SDS011;5203;48.976;8.306;2023-02-28T02:44:01;3.77;;;3.47;;
10315;SDS011;5203;48.976;8.306;2023-02-28T02:46:34;4.03;;;3.20;;
10315;SDS011;5203;48.976;8.306;2023-02-28T02:49:05;4.77;;;3.67;;
10315;SDS011;5203;48.976;8.306;2023-02-28T02:51:34;4.10;;;3.63;;
10315;SDS011;5203;48.976;8.306;2023-02-28T02:56:44;3.90;;;3.50;;
10315;SDS011;5203;48.976;8.306;2023-02-28T02:59:12;3.90;;;3.50;;
10315;SDS011;5203;48.976;8.306;2023-02-28T03:01:46;3.63;;;3.30;;
10315;SDS011;5203;48.976;8.306;2023-02-28T03:04:16;4.30;;;3.90;;
10315;SDS011;5203;48.976;8.306;2023-02-28T03:06:45;4.30;;;3.90;;
10315;SDS011;5203;48.976;8.306;2023-02-28T03:09:11;4.80;;;3.97;;
10315;SDS011;5203;48.976;8.306;2023-02-28T03:11:37;4.60;;;3.20;;
10315;SDS011;5203;48.976;8.306;2023-02-28T03:14:08;4.17;;;3.77;;
10315;SDS011;5203;48.976;8.306;2023-02-28T03:16:57;4.00;;;3.60;;
10315;SDS011;5203;48.976;8.306;2023-02-28T03:19:45;5.43;;;3.83;;
10315;SDS011;5203;48.976;8.306;2023-02-28T03:22:26;5.40;;;3.67;;
10315;SDS011;5203;48.976;8.306;2023-02-28T03:27:39;4.30;;;3.90;;
10315;SDS011;5203;48.976;8.306;2023-02-28T03:30:38;3.83;;;3.53;;
10315;SDS011;5203;48.976;8.306;2023-02-28T03:33:51;4.33;;;3.70;;
10315;SDS011;5203;48.976;8.306;2023-02-28T03:36:16;8.13;;;4.07;;
10315;SDS011;5203;48.976;8.306;2023-02-28T03:38:52;3.67;;;3.37;;
10315;SDS011;5203;48.976;8.306;2023-02-28T03:41:37;5.27;;;3.87;;
10315;SDS011;5203;48.976;8.306;2023-02-28T03:44:09;4.43;;;4.03;;
10315;SDS011;5203;48.976;8.306;2023-02-28T03:46:42;5.23;;;4.47;;
10315;SDS011;5203;48.976;8.306;2023-02-28T03:49:35;5.90;;;3.90;;
10315;SDS011;5203;48.976;8.306;2023-02-28T03:52:08;4.87;;;3.67;;
10315;SDS011;5203;48.976;8.306;2023-02-28T03:54:36;3.90;;;3.60;;
10315;SDS011;5203;48.976;8.306;2023-02-28T03:59:56;4.90;;;3.90;;
10315;SDS011;5203;48.976;8.306;2023-02-28T04:02:24;4.57;;;4.17;;
10315;SDS011;5203;48.976;8.306;2023-02-28T04:04:50;4.53;;;4.13;;
10315;SDS011;5203;48.976;8.306;2023-02-28T04:07:16;5.07;;;4.23;;
10315;SDS011;5203;48.976;8.306;2023-02-28T04:09:42;5.23;;;4.30;;
10315;SDS011;5203;48.976;8.306;2023-02-28T04:12:08;5.17;;;4.57;;
10315;SDS011;5203;48.976;8.306;2023-02-28T04:14:34;4.47;;;4.07;;
10315;SDS011;5203;48.976;8.306;2023-02-28T04:16:59;4.43;;;3.70;;
10315;SDS011;5203;48.976;8.306;2023-02-28T04:19:25;4.80;;;3.93;;
10315;SDS011;5203;48.976;8.306;2023-02-28T04:21:51;6.47;;;4.20;;
10315;SDS011;5203;48.976;8.306;2023-02-28T04:24:22;6.27;;;4.33;;
10315;SDS011;5203;48.976;8.306;2023-02-28T04:26:51;5.00;;;4.43;;
10315;SDS011;5203;48.976;8.306;2023-02-28T04:29:19;4.73;;;4.33;;
10315;SDS011;5203;48.976;8.306;2023-02-28T04:31:49;4.40;;;3.87;;
10315;SDS011;5203;48.976;8.306;2023-02-28T04:34:15;4.70;;;3.83;;
10315;SDS011;5203;48.976;8.306;2023-02-28T04:36:41;4.87;;;4.03;;
10315;SDS011;5203;48.976;8.306;2023-02-28T04:39:07;4.93;;;4.43;;
10315;SDS011;5203;48.976;8.306;2023-02-28T04:41:34;4.63;;;3.80;;
10315;SDS011;5203;48.976;8.306;2023-02-28T04:44:00;5.07;;;4.57;;
10315;SDS011;5203;48.976;8.306;2023-02-28T04:46:25;5.00;;;4.37;;
10315;SDS011;5203;48.976;8.306;2023-02-28T04:48:51;5.10;;;4.43;;
10315;SDS011;5203;48.976;8.306;2023-02-28T04:51:17;4.57;;;4.17;;
10315;SDS011;5203;48.976;8.306;2023-02-28T04:53:44;5.00;;;4.00;;
10315;SDS011;5203;48.976;8.306;2023-02-28T04:56:11;4.93;;;4.07;;
10315;SDS011;5203;48.976;8.306;2023-02-28T04:58:38;4.33;;;3.93;;
10315;SDS011;5203;48.976;8.306;2023-02-28T05:01:05;5.13;;;4.17;;
10315;SDS011;5203;48.976;8.306;2023-02-28T05:03:40;6.27;;;4.63;;
10315;SDS011;5203;48.976;8.306;2023-02-28T05:06:06;5.37;;;4.73;;
10315;SDS011;5203;48.976;8.306;2023-02-28T05:08:35;10.37;;;6.87;;
10315;SDS011;5203;48.976;8.306;2023-02-28T05:11:01;7.73;;;4.80;;
10315;SDS011;5203;48.976;8.306;2023-02-28T05:13:27;6.73;;;6.13;;
10315;SDS011;5203;48.976;8.306;2023-02-28T05:15:53;5.40;;;4.90;;
10315;SDS011;5203;48.976;8.306;2023-02-28T05:18:19;6.90;;;5.20;;
10315;SDS011;5203;48.976;8.306;2023-02-28T05:20:45;7.27;;;5.10;;
10315;SDS011;5203;48.976;8.306;2023-02-28T05:23:11;5.97;;;5.10;;
10315;SDS011;5203;48.976;8.306;2023-02-28T05:25:38;5.80;;;5.20;;
10315;SDS011;5203;48.976;8.306;2023-02-28T05:28:04;4.73;;;4.33;;
10315;SDS011;5203;48.976;8.306;2023-02-28T05:30:30;5.17;;;4.67;;
10315;SDS011;5203;48.976;8.306;2023-02-28T05:32:56;5.73;;;5.10;;
10315;SDS011;5203;48.976;8.306;2023-02-28T05:35:22;5.33;;;4.83;;
10315;SDS011;5203;48.976;8.306;2023-02-28T05:37:49;5.07;;;4.57;;
10315;SDS011;5203;48.976;8.306;2023-02-28T05:40:15;5.57;;;5.07;;
10315;SDS011;5203;48.976;8.306;2023-02-28T05:42:41;6.67;;;5.20;;
10315;SDS011;5203;48.976;8.306;2023-02-28T05:45:07;4.70;;;4.30;;
10315;SDS011;5203;48.976;8.306;2023-02-28T05:47:34;6.27;;;4.73;;
10315;SDS011;5203;48.976;8.306;2023-02-28T05:50:00;6.33;;;5.70;;
10315;SDS011;5203;48.976;8.306;2023-02-28T05:52:26;7.53;;;6.80;;
10315;SDS011;5203;48.976;8.306;2023-02-28T05:54:52;12.30;;;9.43;;
10315;SDS011;5203;48.976;8.306;2023-02-28T05:57:18;9.30;;;7.57;;
10315;SDS011;5203;48.976;8.306;2023-02-28T05:59:43;20.97;;;15.73;;
10315;SDS011;5203;48.976;8.306;2023-02-28T06:02:12;17.10;;;13.20;;
10315;SDS011;5203;48.976;8.306;2023-02-28T06:04:40;10.70;;;9.53;;
10315;SDS011;5203;48.976;8.306;2023-02-28T06:07:06;7.67;;;6.87;;
10315;SDS011;5203;48.976;8.306;2023-02-28T06:09:32;5.87;;;5.27;;
10315;SDS011;5203;48.976;8.306;2023-02-28T06:11:59;6.53;;;5.83;;
10315;SDS011;5203;48.976;8.306;2023-02-28T06:14:28;9.00;;;7.03;;
10315;SDS011;5203;48.976;8.306;2023-02-28T06:16:53;6.10;;;5.47;;
10315;SDS011;5203;48.976;8.306;2023-02-28T06:19:19;7.50;;;5.87;;
10315;SDS011;5203;48.976;8.306;2023-02-28T06:21:47;6.67;;;5.40;;
10315;SDS011;5203;48.976;8.306;2023-02-28T06:24:15;8.93;;;6.57;;
10315;SDS011;5203;48.976;8.306;2023-02-28T06:26:41;6.80;;;6.10;;
10315;SDS011;5203;48.976;8.306;2023-02-28T06:29:06;9.17;;;6.60;;
10315;SDS011;5203;48.976;8.306;2023-02-28T06:31:32;7.10;;;6.40;;
10315;SDS011;5203;48.976;8.306;2023-02-28T06:33:58;6.13;;;5.53;;
10315;SDS011;5203;48.976;8.306;2023-02-28T06:36:23;7.73;;;6.80;;
10315;SDS011;5203;48.976;8.306;2023-02-28T06:38:49;7.00;;;5.60;;
10315;SDS011;5203;48.976;8.306;2023-02-28T06:41:19;6.73;;;5.33;;
10315;SDS011;5203;48.976;8.306;2023-02-28T06:43:54;7.47;;;5.70;;
10315;SDS011;5203;48.976;8.306;2023-02-28T06:46:20;6.07;;;5.47;;
10315;SDS011;5203;48.976;8.306;2023-02-28T06:48:46;7.60;;;6.23;;
10315;SDS011;5203;48.976;8.306;2023-02-28T06:51:13;5.70;;;5.20;;
10315;SDS011;5203;48.976;8.306;2023-02-28T06:53:43;6.40;;;5.80;;
10315;SDS011;5203;48.976;8.306;2023-02-28T06:56:09;10.10;;;6.60;;
10315;SDS011;5203;48.976;8.306;2023-02-28T06:58:37;9.20;;;7.43;;
10315;SDS011;5203;48.976;8.306;2023-02-28T07:01:04;7.30;;;6.60;;
10315;SDS011;5203;48.976;8.306;2023-02-28T07:03:30;6.80;;;6.10;;
10315;SDS011;5203;48.976;8.306;2023-02-28T07:05:56;7.23;;;6.50;;
10315;SDS011;5203;48.976;8.306;2023-02-28T07:08:25;6.27;;;5.67;;
10315;SDS011;5203;48.976;8.306;2023-02-28T07:10:54;7.50;;;5.53;;
10315;SDS011;5203;48.976;8.306;2023-02-28T07:13:21;6.37;;;5.67;;
10315;SDS011;5203;48.976;8.306;2023-02-28T07:16:00;7.27;;;5.70;;
10315;SDS011;5203;48.976;8.306;2023-02-28T07:18:30;7.17;;;6.47;;
10315;SDS011;5203;48.976;8.306;2023-02-28T07:20:56;7.37;;;5.50;;
10315;SDS011;5203;48.976;8.306;2023-02-28T07:23:23;6.53;;;5.93;;
10315;SDS011;5203;48.976;8.306;2023-02-28T07:25:49;8.10;;;5.93;;
10315;SDS011;5203;48.976;8.306;2023-02-28T07:28:15;6.30;;;5.70;;
10315;SDS011;5203;48.976;8.306;2023-02-28T07:30:41;6.83;;;5.87;;
10315;SDS011;5203;48.976;8.306;2023-02-28T07:33:07;7.23;;;5.90;;
10315;SDS011;5203;48.976;8.306;2023-02-28T07:35:33;6.33;;;5.70;;
10315;SDS011;5203;48.976;8.306;2023-02-28T07:37:59;6.40;;;5.80;;
10315;SDS011;5203;48.976;8.306;2023-02-28T07:40:25;6.87;;;5.77;;
10315;SDS011;5203;48.976;8.306;2023-02-28T07:42:51;7.00;;;5.93;;
10315;SDS011;5203;48.976;8.306;2023-02-28T07:45:17;7.60;;;5.43;;
10315;SDS011;5203;48.976;8.306;2023-02-28T07:47:43;6.60;;;5.87;;
10315;SDS011;5203;48.976;8.306;2023-02-28T07:50:10;6.03;;;5.43;;
10315;SDS011;5203;48.976;8.306;2023-02-28T07:52:38;6.30;;;5.70;;
10315;SDS011;5203;48.976;8.306;2023-02-28T07:55:05;9.37;;;5.67;;
10315;SDS011;5203;48.976;8.306;2023-02-28T07:57:32;5.50;;;5.00;;
10315;SDS011;5203;48.976;8.306;2023-02-28T07:59:58;7.77;;;6.53;;
10315;SDS011;5203;48.976;8.306;2023-02-28T08:02:23;10.07;;;6.00;;
10315;SDS011;5203;48.976;8.306;2023-02-28T08:04:49;6.63;;;5.80;;
10315;SDS011;5203;48.976;8.306;2023-02-28T08:07:15;7.73;;;5.90;;
10315;SDS011;5203;48.976;8.306;2023-02-28T08:09:42;7.13;;;5.67;;
10315;SDS011;5203;48.976;8.306;2023-02-28T08:12:08;8.67;;;6.20;;
10315;SDS011;5203;48.976;8.306;2023-02-28T08:14:35;6.40;;;5.53;;
10315;SDS011;5203;48.976;8.306;2023-02-28T08:17:01;6.83;;;5.87;;
10315;SDS011;5203;48.976;8.306;2023-02-28T08:19:27;7.03;;;6.13;;
10315;SDS011;5203;48.976;8.306;2023-02-28T08:21:53;7.33;;;5.90;;
10315;SDS011;5203;48.976;8.306;2023-02-28T08:24:19;8.80;;;6.60;;
10315;SDS011;5203;48.976;8.306;2023-02-28T08:26:45;7.03;;;6.33;;
10315;SDS011;5203;48.976;8.306;2023-02-28T08:29:10;8.07;;;6.87;;
10315;SDS011;5203;48.976;8.306;2023-02-28T08:31:36;9.83;;;6.67;;
10315;SDS011;5203;48.976;8.306;2023-02-28T08:34:09;7.17;;;6.47;;
10315;SDS011;5203;48.976;8.306;2023-02-28T08:36:36;7.23;;;6.27;;
10315;SDS011;5203;48.976;8.306;2023-02-28T08:39:03;7.10;;;6.40;;
10315;SDS011;5203;48.976;8.306;2023-02-28T08:41:29;7.70;;;6.40;;
10315;SDS011;5203;48.976;8.306;2023-02-28T08:43:54;6.67;;;5.97;;
10315;SDS011;5203;48.976;8.306;2023-02-28T08:46:20;8.57;;;6.23;;
10315;SDS011;5203;48.976;8.306;2023-02-28T08:48:46;6.77;;;6.03;;
10315;SDS011;5203;48.976;8.306;2023-02-28T08:51:13;7.53;;;6.57;;
10315;SDS011;5203;48.976;8.306;2023-02-28T08:53:41;6.50;;;5.80;;
10315;SDS011;5203;48.976;8.306;2023-02-28T08:56:11;6.70;;;6.07;;
10315;SDS011;5203;48.976;8.306;2023-02-28T08:58:38;6.83;;;6.00;;
10315;SDS011;5203;48.976;8.306;2023-02-28T09:01:08;8.03;;;7.23;;
10315;SDS011;5203;48.976;8.306;2023-02-28T09:03:42;9.00;;;6.73;;
10315;SDS011;5203;48.976;8.306;2023-02-28T09:06:09;6.43;;;5.80;;
10315;SDS011;5203;48.976;8.306;2023-02-28T09:08:36;7.27;;;6.40;;
10315;SDS011;5203;48.976;8.306;2023-02-28T09:11:01;7.53;;;6.47;;
10315;SDS011;5203;48.976;8.306;2023-02-28T09:13:28;8.57;;;6.23;;
10315;SDS011;5203;48.976;8.306;2023-02-28T09:15:57;7.37;;;6.23;;
10315;SDS011;5203;48.976;8.306;2023-02-28T09:18:24;7.53;;;6.80;;
10315;SDS011;5203;48.976;8.306;2023-02-28T09:20:51;7.60;;;6.67;;
10315;SDS011;5203;48.976;8.306;2023-02-28T09:23:17;7.53;;;6.63;;
10315;SDS011;5203;48.976;8.306;2023-02-28T09:25:49;8.77;;;7.40;;
10315;SDS011;5203;48.976;8.306;2023-02-28T09:28:17;7.73;;;6.90;;
10315;SDS011;5203;48.976;8.306;2023-02-28T09:30:47;8.23;;;7.17;;
10315;SDS011;5203;48.976;8.306;2023-02-28T09:33:15;8.77;;;6.80;;
10315;SDS011;5203;48.976;8.306;2023-02-28T09:35:41;8.90;;;6.87;;
10315;SDS011;5203;48.976;8.306;2023-02-28T09:38:07;11.90;;;7.47;;
10315;SDS011;5203;48.976;8.306;2023-02-28T09:40:35;7.73;;;7.03;;
10315;SDS011;5203;48.976;8.306;2023-02-28T09:43:04;7.90;;;7.10;;
10315;SDS011;5203;48.976;8.306;2023-02-28T09:45:35;9.53;;;6.80;;
10315;SDS011;5203;48.976;8.306;2023-02-28T09:48:23;10.63;;;7.40;;
10315;SDS011;5203;48.976;8.306;2023-02-28T09:51:02;11.63;;;7.23;;
10315;SDS011;5203;48.976;8.306;2023-02-28T09:53:34;10.23;;;7.13;;
10315;SDS011;5203;48.976;8.306;2023-02-28T09:56:11;8.77;;;7.70;;
10315;SDS011;5203;48.976;8.306;2023-02-28T09:58:47;9.13;;;7.50;;
10315;SDS011;5203;48.976;8.306;2023-02-28T10:06:51;9.63;;;7.10;;
10315;SDS011;5203;48.976;8.306;2023-02-28T10:09:22;10.10;;;8.37;;
10315;SDS011;5203;48.976;8.306;2023-02-28T10:11:52;8.83;;;7.43;;
10315;SDS011;5203;48.976;8.306;2023-02-28T10:14:22;9.90;;;7.63;;
10315;SDS011;5203;48.976;8.306;2023-02-28T10:16:52;9.27;;;8.37;;
10315;SDS011;5203;48.976;8.306;2023-02-28T10:19:34;17.20;;;9.57;;
10315;SDS011;5203;48.976;8.306;2023-02-28T10:24:45;8.03;;;7.23;;
10315;SDS011;5203;48.976;8.306;2023-02-28T10:27:20;8.67;;;7.77;;
10315;SDS011;5203;48.976;8.306;2023-02-28T10:29:51;10.30;;;8.70;;
10315;SDS011;5203;48.976;8.306;2023-02-28T10:32:39;10.53;;;8.50;;
10315;SDS011;5203;48.976;8.306;2023-02-28T10:35:15;9.80;;;8.47;;
10315;SDS011;5203;48.976;8.306;2023-02-28T10:37:48;9.93;;;7.90;;
10315;SDS011;5203;48.976;8.306;2023-02-28T10:43:01;8.80;;;7.90;;
10315;SDS011;5203;48.976;8.306;2023-02-28T10:45:30;8.03;;;7.13;;
10315;SDS011;5203;48.976;8.306;2023-02-28T10:48:01;8.00;;;7.30;;
10315;SDS011;5203;48.976;8.306;2023-02-28T10:55:35;8.67;;;7.73;;
10315;SDS011;5203;48.976;8.306;2023-02-28T10:58:02;10.43;;;8.53;;
10315;SDS011;5203;48.976;8.306;2023-02-28T11:00:36;9.30;;;8.30;;
10315;SDS011;5203;48.976;8.306;2023-02-28T11:03:02;9.00;;;8.17;;
10315;SDS011;5203;48.976;8.306;2023-02-28T11:05:50;9.00;;;8.10;;
10315;SDS011;5203;48.976;8.306;2023-02-28T11:08:16;10.10;;;8.63;;
10315;SDS011;5203;48.976;8.306;2023-02-28T11:10:53;8.83;;;7.93;;
10315;SDS011;5203;48.976;8.306;2023-02-28T11:13:21;9.30;;;8.13;;
10315;SDS011;5203;48.976;8.306;2023-02-28T11:15:53;10.40;;;8.90;;
10315;SDS011;5203;48.976;8.306;2023-02-28T11:18:38;9.00;;;8.10;;
10315;SDS011;5203;48.976;8.306;2023-02-28T11:21:30;9.70;;;8.10;;
10315;SDS011;5203;48.976;8.306;2023-02-28T11:24:02;9.70;;;8.57;;
10315;SDS011;5203;48.976;8.306;2023-02-28T11:26:35;9.17;;;8.37;;
10315;SDS011;5203;48.976;8.306;2023-02-28T11:29:11;10.60;;;7.93;;
10315;SDS011;5203;48.976;8.306;2023-02-28T11:31:42;9.43;;;8.43;;
10315;SDS011;5203;48.976;8.306;2023-02-28T11:34:22;12.20;;;8.97;;
10315;SDS011;5203;48.976;8.306;2023-02-28T11:36:50;9.60;;;8.47;;
10315;SDS011;5203;48.976;8.306;2023-02-28T11:39:18;12.30;;;8.07;;
10315;SDS011;5203;48.976;8.306;2023-02-28T11:42:08;10.00;;;8.90;;
10315;SDS011;5203;48.976;8.306;2023-02-28T11:47:39;9.80;;;8.77;;
10315;SDS011;5203;48.976;8.306;2023-02-28T11:50:42;9.07;;;8.20;;
10315;SDS011;5203;48.976;8.306;2023-02-28T11:53:19;8.63;;;7.83;;
10315;SDS011;5203;48.976;8.306;2023-02-28T11:56:00;8.57;;;7.70;;
10315;SDS011;5203;48.976;8.306;2023-02-28T12:04:25;9.40;;;8.13;;
10315;SDS011;5203;48.976;8.306;2023-02-28T12:10:21;9.60;;;8.50;;
10315;SDS011;5203;48.976;8.306;2023-02-28T12:12:54;10.03;;;9.03;;
10315;SDS011;5203;48.976;8.306;2023-02-28T12:18:26;9.37;;;8.23;;
10315;SDS011;5203;48.976;8.306;2023-02-28T12:21:04;9.13;;;8.23;;
10315;SDS011;5203;48.976;8.306;2023-02-28T12:29:01;8.63;;;7.63;;
10315;SDS011;5203;48.976;8.306;2023-02-28T12:31:35;10.17;;;9.07;;
10315;SDS011;5203;48.976;8.306;2023-02-28T12:34:06;13.73;;;9.07;;
10315;SDS011;5203;48.976;8.306;2023-02-28T12:36:38;11.47;;;9.40;;
10315;SDS011;5203;48.976;8.306;2023-02-28T12:39:16;10.47;;;9.47;;
10315;SDS011;5203;48.976;8.306;2023-02-28T12:42:05;9.97;;;8.97;;
10315;SDS011;5203;48.976;8.306;2023-02-28T12:44:44;9.80;;;8.80;;
10315;SDS011;5203;48.976;8.306;2023-02-28T12:47:16;10.67;;;9.57;;
10315;SDS011;5203;48.976;8.306;2023-02-28T12:49:46;10.67;;;9.63;;
10315;SDS011;5203;48.976;8.306;2023-02-28T12:52:25;9.20;;;8.40;;
10315;SDS011;5203;48.976;8.306;2023-02-28T12:55:13;9.87;;;8.77;;
10315;SDS011;5203;48.976;8.306;2023-02-28T13:03:44;8.67;;;7.87;;
10315;SDS011;5203;48.976;8.306;2023-02-28T13:09:10;10.03;;;9.10;;
10315;SDS011;5203;48.976;8.306;2023-02-28T13:11:39;9.37;;;8.40;;
10315;SDS011;5203;48.976;8.306;2023-02-28T13:14:19;10.57;;;9.57;;
10315;SDS011;5203;48.976;8.306;2023-02-28T13:19:18;11.03;;;9.03;;
10315;SDS011;5203;48.976;8.306;2023-02-28T13:21:48;10.50;;;9.40;;
10315;SDS011;5203;48.976;8.306;2023-02-28T13:29:35;9.40;;;8.60;;
10315;SDS011;5203;48.976;8.306;2023-02-28T13:34:42;10.27;;;9.37;;
10315;SDS011;5203;48.976;8.306;2023-02-28T13:37:32;9.77;;;8.87;;
10315;SDS011;5203;48.976;8.306;2023-02-28T13:42:36;10.50;;;9.50;;
10315;SDS011;5203;48.976;8.306;2023-02-28T13:50:43;9.70;;;8.80;;
10315;SDS011;5203;48.976;8.306;2023-02-28T13:55:45;9.87;;;8.97;;
10315;SDS011;5203;48.976;8.306;2023-02-28T14:07:02;10.47;;;9.50;;
10315;SDS011;5203;48.976;8.306;2023-02-28T14:11:57;10.97;;;9.83;;
10315;SDS011;5203;48.976;8.306;2023-02-28T14:15:01;9.87;;;8.97;;
10315;SDS011;5203;48.976;8.306;2023-02-28T14:17:27;10.37;;;9.30;;
10315;SDS011;5203;48.976;8.306;2023-02-28T14:19:53;16.83;;;10.80;;
10315;SDS011;5203;48.976;8.306;2023-02-28T14:22:38;10.63;;;9.63;;
10315;SDS011;5203;48.976;8.306;2023-02-28T14:25:33;10.60;;;9.50;;
10315;SDS011;5203;48.976;8.306;2023-02-28T14:33:59;10.87;;;9.90;;
10315;SDS011;5203;48.976;8.306;2023-02-28T14:36:46;10.53;;;9.47;;
10315;SDS011;5203;48.976;8.306;2023-02-28T14:41:41;13.77;;;10.27;;
10315;SDS011;5203;48.976;8.306;2023-02-28T14:44:16;10.70;;;9.77;;
10315;SDS011;5203;48.976;8.306;2023-02-28T14:46:59;11.60;;;10.40;;
10315;SDS011;5203;48.976;8.306;2023-02-28T14:49:51;10.63;;;9.53;;
10315;SDS011;5203;48.976;8.306;2023-02-28T14:52:50;11.67;;;10.63;;
10315;SDS011;5203;48.976;8.306;2023-02-28T14:55:16;10.40;;;9.53;;
10315;SDS011;5203;48.976;8.306;2023-02-28T14:57:54;11.47;;;10.47;;
10315;SDS011;5203;48.976;8.306;2023-02-28T15:00:26;10.93;;;9.83;;
10315;SDS011;5203;48.976;8.306;2023-02-28T15:02:54;11.57;;;10.47;;
10315;SDS011;5203;48.976;8.306;2023-02-28T15:08:12;10.73;;;9.83;;
10315;SDS011;5203;48.976;8.306;2023-02-28T15:10:50;10.53;;;9.63;;
10315;SDS011;5203;48.976;8.306;2023-02-28T15:13:35;10.63;;;9.60;;
10315;SDS011;5203;48.976;8.306;2023-02-28T15:16:04;11.07;;;9.97;;
10315;SDS011;5203;48.976;8.306;2023-02-28T15:18:44;11.43;;;10.33;;
10315;SDS011;5203;48.976;8.306;2023-02-28T15:21:21;11.20;;;10.17;;
10315;SDS011;5203;48.976;8.306;2023-02-28T15:23:54;11.20;;;10.20;;
10315;SDS011;5203;48.976;8.306;2023-02-28T15:26:27;11.57;;;10.37;;
10315;SDS011;5203;48.976;8.306;2023-02-28T15:29:00;11.37;;;10.00;;
10315;SDS011;5203;48.976;8.306;2023-02-28T15:31:50;11.67;;;10.00;;
10315;SDS011;5203;48.976;8.306;2023-02-28T15:34:23;10.77;;;9.77;;
10315;SDS011;5203;48.976;8.306;2023-02-28T15:36:54;10.27;;;9.37;;
10315;SDS011;5203;48.976;8.306;2023-02-28T15:39:25;10.47;;;9.57;;
10315;SDS011;5203;48.976;8.306;2023-02-28T15:42:18;10.17;;;9.20;;
10315;SDS011;5203;48.976;8.306;2023-02-28T15:44:45;10.87;;;9.87;;
10315;SDS011;5203;48.976;8.306;2023-02-28T15:52:27;10.77;;;9.87;;
10315;SDS011;5203;48.976;8.306;2023-02-28T15:55:17;13.37;;;10.63;;
10315;SDS011;5203;48.976;8.306;2023-02-28T15:57:50;11.60;;;10.23;;
10315;SDS011;5203;48.976;8.306;2023-02-28T16:00:22;10.57;;;9.50;;
10315;SDS011;5203;48.976;8.306;2023-02-28T16:02:49;10.60;;;9.60;;
10315;SDS011;5203;48.976;8.306;2023-02-28T16:10:29;12.83;;;11.53;;
10315;SDS011;5203;48.976;8.306;2023-02-28T16:12:55;11.47;;;10.47;;
10315;SDS011;5203;48.976;8.306;2023-02-28T16:15:23;11.77;;;10.17;;
10315;SDS011;5203;48.976;8.306;2023-02-28T16:17:51;11.70;;;10.60;;
10315;SDS011;5203;48.976;8.306;2023-02-28T16:20:22;11.53;;;10.43;;
10315;SDS011;5203;48.976;8.306;2023-02-28T16:22:50;11.50;;;10.50;;
10315;SDS011;5203;48.976;8.306;2023-02-28T16:25:18;11.70;;;10.70;;
10315;SDS011;5203;48.976;8.306;2023-02-28T16:27:47;13.13;;;11.40;;
10315;SDS011;5203;48.976;8.306;2023-02-28T16:30:19;13.00;;;11.80;;
10315;SDS011;5203;48.976;8.306;2023-02-28T16:32:47;11.70;;;10.50;;
10315;SDS011;5203;48.976;8.306;2023-02-28T16:35:14;11.63;;;10.63;;
10315;SDS011;5203;48.976;8.306;2023-02-28T16:37:40;12.10;;;10.77;;
10315;SDS011;5203;48.976;8.306;2023-02-28T16:40:08;10.43;;;9.43;;
10315;SDS011;5203;48.976;8.306;2023-02-28T16:42:39;11.10;;;10.00;;
10315;SDS011;5203;48.976;8.306;2023-02-28T16:45:05;11.03;;;9.93;;
10315;SDS011;5203;48.976;8.306;2023-02-28T16:47:36;10.50;;;9.50;;
10315;SDS011;5203;48.976;8.306;2023-02-28T16:50:04;10.97;;;9.87;;
10315;SDS011;5203;48.976;8.306;2023-02-28T16:52:41;10.47;;;9.47;;
10315;SDS011;5203;48.976;8.306;2023-02-28T16:55:07;10.97;;;9.87;;
10315;SDS011;5203;48.976;8.306;2023-02-28T16:57:33;12.47;;;10.07;;
10315;SDS011;5203;48.976;8.306;2023-02-28T16:59:58;10.20;;;9.30;;
10315;SDS011;5203;48.976;8.306;2023-02-28T17:02:24;11.30;;;10.30;;
10315;SDS011;5203;48.976;8.306;2023-02-28T17:04:50;11.30;;;10.27;;
10315;SDS011;5203;48.976;8.306;2023-02-28T17:07:15;11.70;;;10.53;;
10315;SDS011;5203;48.976;8.306;2023-02-28T17:09:41;11.10;;;10.10;;
10315;SDS011;5203;48.976;8.306;2023-02-28T17:12:08;11.90;;;9.97;;
10315;SDS011;5203;48.976;8.306;2023-02-28T17:14:34;12.27;;;10.83;;
10315;SDS011;5203;48.976;8.306;2023-02-28T17:17:00;10.63;;;9.57;;
10315;SDS011;5203;48.976;8.306;2023-02-28T17:19:25;10.43;;;9.33;;
10315;SDS011;5203;48.976;8.306;2023-02-28T17:21:53;11.30;;;10.00;;